createdAt,value
2019-03-11T00:00:30.558Z,100765.33
2019-03-11T00:03:02.454Z,100761.47
2019-03-11T00:05:34.111Z,100759.32
2019-03-11T00:08:06.182Z,100763.73
2019-03-11T00:10:38.441Z,100745.51
2019-03-11T00:13:10.033Z,100749.01
2019-03-11T00:15:41.754Z,100753.81
2019-03-11T00:18:13.373Z,100752.56
2019-03-11T00:20:44.999Z,100751.70
2019-03-11T00:23:16.812Z,100759.53
2019-03-11T00:25:48.434Z,100750.86
2019-03-11T00:28:20.694Z,100748.33
2019-03-11T00:30:52.246Z,100744.86
2019-03-11T00:33:23.878Z,100746.69
2019-03-11T00:35:55.458Z,100755.45
2019-03-11T00:38:27.184Z,100747.68
2019-03-11T00:40:58.820Z,100741.63
2019-03-11T00:43:31.122Z,100744.67
2019-03-11T00:46:02.675Z,100741.70
2019-03-11T00:48:34.373Z,100742.14
2019-03-11T00:51:06.046Z,100737.39
2019-03-11T00:53:37.624Z,100734.80
2019-03-11T00:56:09.239Z,100732.20
2019-03-11T00:58:41.540Z,100723.92
2019-03-11T01:01:13.178Z,100725.23
2019-03-11T01:03:44.840Z,100721.31
2019-03-11T01:06:16.896Z,100722.23
2019-03-11T01:08:48.942Z,100716.53
2019-03-11T01:11:20.537Z,100705.29
2019-03-11T01:13:53.412Z,100702.70
2019-03-11T01:16:25.053Z,100690.12
2019-03-11T01:18:56.672Z,100690.18
2019-03-11T01:21:28.343Z,100686.70
2019-03-11T01:23:59.980Z,100684.98
2019-03-11T01:26:31.576Z,100683.68
2019-03-11T01:29:03.844Z,100675.49
2019-03-11T01:31:35.433Z,100683.77
2019-03-11T01:34:07.050Z,100671.20
2019-03-11T01:36:39.107Z,100674.26
2019-03-11T01:39:10.782Z,100671.20
2019-03-11T01:41:42.537Z,100662.52
2019-03-11T01:44:14.921Z,100648.16
2019-03-11T01:46:46.549Z,100644.23
2019-03-11T01:49:18.214Z,100639.84
2019-03-11T01:51:50.041Z,100631.13
2019-03-11T01:54:21.686Z,100618.00
2019-03-11T01:56:53.968Z,100604.97
2019-03-11T01:59:26.274Z,100617.14
2019-03-11T02:01:57.927Z,100608.42
2019-03-11T02:04:31.025Z,100609.73
2019-03-11T02:07:03.018Z,100608.42
2019-03-11T02:09:34.658Z,100598.84
2019-03-11T02:12:06.333Z,100594.52
2019-03-11T02:14:38.535Z,100594.53
2019-03-11T02:17:10.134Z,100589.27
2019-03-11T02:19:42.794Z,100580.07
2019-03-11T02:22:14.919Z,100583.09
2019-03-11T02:24:46.520Z,100579.98
2019-03-11T02:27:18.165Z,100575.98
2019-03-11T02:29:50.033Z,100574.66
2019-03-11T02:32:21.993Z,100573.29
2019-03-11T02:34:53.594Z,100567.95
2019-03-11T02:37:25.228Z,100571.84
2019-03-11T02:39:56.812Z,100570.06
2019-03-11T02:42:28.470Z,100564.33
2019-03-11T02:45:00.400Z,100553.39
2019-03-11T02:47:32.257Z,100548.05
2019-03-11T02:50:03.922Z,100547.16
2019-03-11T02:52:35.709Z,100538.37
2019-03-11T02:55:07.539Z,100540.06
2019-03-11T02:57:39.246Z,100542.99
2019-03-11T03:00:12.671Z,100539.42
2019-03-11T03:03:06.274Z,100527.64
2019-03-11T03:05:50.282Z,100512.00
2019-03-11T03:08:22.251Z,100514.08
2019-03-11T03:10:53.986Z,100498.53
2019-03-11T03:13:25.713Z,100498.82
2019-03-11T03:15:57.537Z,100494.02
2019-03-11T03:18:29.417Z,100501.87
2019-03-11T03:21:01.083Z,100506.72
2019-03-11T03:23:32.719Z,100515.03
2019-03-11T03:26:04.321Z,100508.16
2019-03-11T03:28:35.959Z,100508.63
2019-03-11T03:31:07.597Z,100510.45
2019-03-11T03:33:39.459Z,100523.44
2019-03-11T03:36:11.170Z,100521.69
2019-03-11T03:38:42.885Z,100523.82
2019-03-11T03:41:14.518Z,100516.75
2019-03-11T03:43:46.115Z,100505.41
2019-03-11T03:46:19.456Z,100504.49
2019-03-11T03:48:51.282Z,100498.89
2019-03-11T03:51:23.419Z,100494.55
2019-03-11T03:53:55.049Z,100501.98
2019-03-11T03:56:26.821Z,100486.78
2019-03-11T03:58:58.431Z,100485.06
2019-03-11T04:01:30.018Z,100473.03
2019-03-11T04:04:02.387Z,100482.45
2019-03-11T04:06:34.447Z,100481.15
2019-03-11T04:09:06.168Z,100473.79
2019-03-11T04:11:37.822Z,100467.67
2019-03-11T04:14:09.424Z,100458.13
2019-03-11T04:16:41.040Z,100456.81
2019-03-11T04:19:12.844Z,100452.90
2019-03-11T04:21:44.518Z,100443.28
2019-03-11T04:24:16.124Z,100441.97
2019-03-11T04:26:54.749Z,100452.04
2019-03-11T04:29:26.517Z,100447.77
2019-03-11T04:31:59.614Z,100436.85
2019-03-11T04:34:31.307Z,100432.11
2019-03-11T04:37:02.903Z,100440.73
2019-03-11T04:39:34.762Z,100430.70
2019-03-11T04:42:06.399Z,100421.16
2019-03-11T04:44:38.022Z,100418.51
2019-03-11T04:47:09.664Z,100417.20
2019-03-11T04:49:41.768Z,100402.80
2019-03-11T04:52:13.438Z,100413.25
2019-03-11T04:54:45.079Z,100430.19
2019-03-11T04:57:16.715Z,100439.78
2019-03-11T04:59:48.443Z,100441.08
2019-03-11T05:02:20.286Z,100431.98
2019-03-11T05:04:52.180Z,100446.78
2019-03-11T05:07:24.252Z,100444.17
2019-03-11T05:09:56.040Z,100449.39
2019-03-11T05:12:27.668Z,100446.41
2019-03-11T05:14:59.258Z,100456.85
2019-03-11T05:17:30.885Z,100454.66
2019-03-11T05:20:02.721Z,100455.52
2019-03-11T05:22:34.482Z,100449.56
2019-03-11T05:25:06.693Z,100462.48
2019-03-11T05:27:38.290Z,100468.59
2019-03-11T05:30:13.479Z,100468.66
2019-03-11T05:32:45.116Z,100469.49
2019-03-11T05:35:16.832Z,100471.75
2019-03-11T05:37:48.703Z,100478.76
2019-03-11T05:40:20.443Z,100481.02
2019-03-11T05:42:52.105Z,100487.10
2019-03-11T05:45:23.843Z,100482.90
2019-03-11T05:47:55.556Z,100498.44
2019-03-11T05:50:27.166Z,100504.13
2019-03-11T05:52:59.150Z,100501.20
2019-03-11T05:55:30.836Z,100501.67
2019-03-11T05:58:02.449Z,100507.44
2019-03-11T06:00:34.221Z,100507.02
2019-03-11T06:03:05.871Z,100493.65
2019-03-11T06:05:37.513Z,100499.13
2019-03-11T06:08:17.590Z,100493.84
2019-03-11T06:10:49.211Z,100492.48
2019-03-11T06:13:20.826Z,100507.58
2019-03-11T06:15:52.617Z,100558.10
2019-03-11T06:18:52.079Z,100572.55
2019-03-11T06:21:34.964Z,100568.08
2019-03-11T06:24:07.291Z,100527.16
2019-03-11T06:26:38.876Z,100564.45
2019-03-11T06:29:13.025Z,100574.42
2019-03-11T06:31:44.794Z,100571.26
2019-03-11T06:34:16.410Z,100593.50
2019-03-11T06:36:48.076Z,100596.91
2019-03-11T06:39:19.797Z,100581.11
2019-03-11T06:41:51.387Z,100587.34
2019-03-11T06:44:23.055Z,100579.63
2019-03-11T06:46:54.674Z,100589.64
2019-03-11T06:49:26.414Z,100576.30
2019-03-11T06:51:58.027Z,100589.77
2019-03-11T06:54:29.897Z,100591.06
2019-03-11T06:57:01.484Z,100616.13
2019-03-11T06:59:33.320Z,100632.61
2019-03-11T07:02:05.084Z,100633.05
2019-03-11T07:04:36.711Z,100655.62
2019-03-11T07:07:08.698Z,100632.34
2019-03-11T07:09:40.295Z,100643.66
2019-03-11T07:12:12.094Z,100631.60
2019-03-11T07:14:43.741Z,100628.19
2019-03-11T07:17:15.577Z,100638.61
2019-03-11T07:19:47.193Z,100639.88
2019-03-11T07:22:19.228Z,100636.02
2019-03-11T07:24:50.864Z,100633.43
2019-03-11T07:27:22.668Z,100642.55
2019-03-11T07:29:54.265Z,100640.83
2019-03-11T07:32:25.974Z,100650.34
2019-03-11T07:35:07.939Z,100642.98
2019-03-11T07:37:30.913Z,100640.78
2019-03-11T07:40:02.459Z,100639.09
2019-03-11T07:42:34.414Z,100628.67
2019-03-11T07:45:06.265Z,100638.58
2019-03-11T07:47:37.919Z,100643.27
2019-03-11T07:50:09.639Z,100641.86
2019-03-11T07:52:41.242Z,100648.63
2019-03-11T07:55:12.875Z,100643.27
2019-03-11T07:57:44.882Z,100639.67
2019-03-11T08:00:16.637Z,100639.55
2019-03-11T08:02:48.290Z,100651.60
2019-03-11T08:05:19.934Z,100648.52
2019-03-11T08:07:51.856Z,100652.35
2019-03-11T08:10:23.626Z,100660.08
2019-03-11T08:12:55.472Z,100661.30
2019-03-11T08:15:27.085Z,100664.57
2019-03-11T08:17:58.671Z,100659.16
2019-03-11T08:20:30.590Z,100666.35
2019-03-11T08:23:02.558Z,100664.84
2019-03-11T08:25:34.317Z,100679.41
2019-03-11T08:28:05.930Z,100681.00
2019-03-11T08:30:37.662Z,100684.31
2019-03-11T08:33:09.278Z,100686.34
2019-03-11T08:35:41.020Z,100687.44
2019-03-11T08:38:12.897Z,100693.28
2019-03-11T08:40:44.549Z,100687.84
2019-03-11T08:43:16.475Z,100678.91
2019-03-11T08:45:48.181Z,100663.58
2019-03-11T08:48:19.784Z,100681.41
2019-03-11T08:50:51.470Z,100685.08
2019-03-11T08:53:23.151Z,100676.12
2019-03-11T08:55:54.906Z,100677.75
2019-03-11T08:58:26.506Z,100678.24
2019-03-11T09:00:58.308Z,100686.02
2019-03-11T09:03:29.923Z,100682.08
2019-03-11T09:06:01.540Z,100684.14
2019-03-11T09:08:33.428Z,100692.20
2019-03-11T09:11:07.085Z,100688.14
2019-03-11T09:13:38.827Z,100682.45
2019-03-11T09:16:10.612Z,100674.19
2019-03-11T09:18:42.267Z,100671.16
2019-03-11T09:21:13.890Z,100665.49
2019-03-11T09:23:45.482Z,100663.27
2019-03-11T09:26:17.418Z,100660.90
2019-03-11T09:28:49.169Z,100674.39
2019-03-11T09:31:20.970Z,100675.28
2019-03-11T09:33:52.746Z,100688.45
2019-03-11T09:36:24.365Z,100680.34
2019-03-11T09:38:56.227Z,100684.05
2019-03-11T09:41:27.905Z,100687.44
2019-03-11T09:43:59.550Z,100693.91
2019-03-11T09:46:31.305Z,100695.52
2019-03-11T09:49:02.957Z,100689.75
2019-03-11T09:51:34.609Z,100713.56
2019-03-11T09:54:06.514Z,100703.50
2019-03-11T09:56:43.268Z,100705.13
2019-03-11T09:59:11.713Z,100702.39
2019-03-11T10:01:43.469Z,100705.86
2019-03-11T10:04:15.079Z,100702.36
2019-03-11T10:06:46.714Z,100711.95
2019-03-11T10:09:18.548Z,100725.15
2019-03-11T10:11:50.276Z,100731.27
2019-03-11T10:14:21.875Z,100726.61
2019-03-11T10:16:53.677Z,100723.34
2019-03-11T10:19:25.288Z,100724.03
2019-03-11T10:21:56.899Z,100728.23
2019-03-11T10:24:28.510Z,100744.58
2019-03-11T10:27:00.696Z,100739.85
2019-03-11T10:29:32.363Z,100738.10
2019-03-11T10:32:04.001Z,100731.13
2019-03-11T10:34:35.748Z,100737.24
2019-03-11T10:37:07.332Z,100743.41
2019-03-11T10:39:43.750Z,100740.27
2019-03-11T10:42:15.383Z,100745.80
2019-03-11T10:44:47.189Z,100737.83
2019-03-11T10:47:18.876Z,100742.79
2019-03-11T10:49:50.651Z,100747.42
2019-03-11T10:52:22.446Z,100751.17
2019-03-11T10:54:54.121Z,100734.95
2019-03-11T10:57:25.727Z,100739.11
2019-03-11T10:59:57.515Z,100741.09
2019-03-11T11:02:29.183Z,100752.63
2019-03-11T11:05:01.049Z,100751.00
2019-03-11T11:07:32.871Z,100756.39
2019-03-11T11:10:04.809Z,100758.78
2019-03-11T11:12:36.457Z,100761.66
2019-03-11T11:15:12.783Z,100761.69
2019-03-11T11:17:44.521Z,100770.94
2019-03-11T11:20:16.594Z,100781.25
2019-03-11T11:22:48.296Z,100771.16
2019-03-11T11:25:20.468Z,100775.44
2019-03-11T11:27:52.097Z,100788.88
2019-03-11T11:30:24.083Z,100783.61
2019-03-11T11:32:55.845Z,100780.89
2019-03-11T11:35:27.585Z,100775.59
2019-03-11T11:37:59.182Z,100775.52
2019-03-11T11:40:31.182Z,100783.03
2019-03-11T11:43:02.794Z,100789.25
2019-03-11T11:45:34.407Z,100793.56
2019-03-11T11:48:08.247Z,100800.01
2019-03-11T11:50:39.459Z,100807.19
2019-03-11T11:53:11.090Z,100799.89
2019-03-11T11:55:42.851Z,100791.32
2019-03-11T11:58:14.484Z,100789.77
2019-03-11T12:00:49.083Z,100804.48
2019-03-11T12:03:20.677Z,100795.66
2019-03-11T12:05:52.395Z,100797.77
2019-03-11T12:08:24.552Z,100801.31
2019-03-11T12:10:57.756Z,100803.42
2019-03-11T12:13:30.970Z,100815.62
2019-03-11T12:16:04.341Z,100814.03
2019-03-11T12:18:35.970Z,100816.92
2019-03-11T12:21:09.246Z,100818.84
2019-03-11T12:23:46.245Z,100820.57
2019-03-11T12:26:14.493Z,100828.30
2019-03-11T12:28:46.097Z,100821.27
2019-03-11T12:31:21.788Z,100828.16
2019-03-11T12:33:52.627Z,100827.98
2019-03-11T12:36:25.631Z,100825.68
2019-03-11T12:38:57.419Z,100824.78
2019-03-11T12:41:29.675Z,100830.58
2019-03-11T12:44:01.543Z,100832.75
2019-03-11T12:46:33.322Z,100837.16
2019-03-11T12:49:04.976Z,100842.02
2019-03-11T12:51:37.346Z,100839.30
2019-03-11T12:54:10.563Z,100837.33
2019-03-11T12:56:42.241Z,100840.74
2019-03-11T12:59:15.055Z,100839.74
2019-03-11T13:01:47.194Z,100848.73
2019-03-11T13:04:18.885Z,100851.56
2019-03-11T13:06:50.555Z,100848.91
2019-03-11T13:09:22.583Z,100854.19
2019-03-11T13:11:54.474Z,100856.08
2019-03-11T13:14:26.153Z,100860.98
2019-03-11T13:16:57.800Z,100866.66
2019-03-11T13:19:29.605Z,100864.25
2019-03-11T13:22:01.639Z,100870.52
2019-03-11T13:24:33.494Z,100868.94
2019-03-11T13:27:05.268Z,100871.75
2019-03-11T13:29:37.042Z,100878.05
2019-03-11T13:32:08.717Z,100882.59
2019-03-11T13:34:40.491Z,100883.55
2019-03-11T13:37:12.111Z,100888.88
2019-03-11T13:39:43.955Z,100895.03
2019-03-11T13:42:15.638Z,100895.64
2019-03-11T13:44:47.544Z,100905.38
2019-03-11T13:47:19.226Z,100901.16
2019-03-11T13:49:50.975Z,100904.28
2019-03-11T13:52:24.155Z,100908.14
2019-03-11T13:54:57.521Z,100904.73
2019-03-11T13:57:29.195Z,100906.36
2019-03-11T14:00:02.393Z,100908.80
2019-03-11T14:02:34.008Z,100912.09
2019-03-11T14:05:05.863Z,100917.61
2019-03-11T14:07:36.792Z,100914.07
2019-03-11T14:10:06.228Z,100916.81
2019-03-11T14:12:37.865Z,100916.02
2019-03-11T14:15:10.025Z,100921.41
2019-03-11T14:17:41.665Z,100932.92
2019-03-11T14:20:14.241Z,100928.25
2019-03-11T14:22:45.870Z,100937.02
2019-03-11T14:25:17.797Z,100936.61
2019-03-11T14:27:49.466Z,100948.77
2019-03-11T14:30:21.325Z,100946.60
2019-03-11T14:32:53.077Z,100953.95
2019-03-11T14:35:24.876Z,100943.45
2019-03-11T14:37:56.800Z,100948.63
2019-03-11T14:40:28.667Z,100946.36
2019-03-11T14:43:00.382Z,100951.92
2019-03-11T14:45:32.074Z,100963.58
2019-03-11T14:48:03.734Z,100970.64
2019-03-11T14:50:36.161Z,100976.02
2019-03-11T14:53:07.942Z,100986.33
2019-03-11T14:55:39.597Z,100999.73
2019-03-11T14:58:11.333Z,101000.92
2019-03-11T15:00:43.231Z,101021.77
2019-03-11T15:03:14.912Z,101018.27
2019-03-11T15:05:46.568Z,101008.87
2019-03-11T15:08:18.513Z,101014.20
2019-03-11T15:10:50.130Z,101005.49
2019-03-11T15:13:22.091Z,101008.39
2019-03-11T15:15:53.761Z,101009.39
2019-03-11T15:18:25.508Z,101000.31
2019-03-11T15:20:57.190Z,101001.97
2019-03-11T15:23:28.888Z,100998.91
2019-03-11T15:26:00.596Z,100993.11
2019-03-11T15:28:32.345Z,100992.14
2019-03-11T15:31:10.592Z,100987.25
2019-03-11T15:33:37.380Z,100986.54
2019-03-11T15:36:08.984Z,100988.20
2019-03-11T15:38:40.780Z,100991.16
2019-03-11T15:41:12.542Z,100990.69
2019-03-11T15:43:44.318Z,100994.63
2019-03-11T15:46:15.958Z,100995.50
2019-03-11T15:48:47.613Z,100984.09
2019-03-11T15:51:19.281Z,100990.92
2019-03-11T15:53:51.103Z,100996.45
2019-03-11T15:56:22.739Z,100999.40
2019-03-11T15:58:54.513Z,101004.52
2019-03-11T16:01:26.272Z,100999.22
2019-03-11T16:03:57.950Z,101004.41
2019-03-11T16:06:29.752Z,101011.75
2019-03-11T16:09:02.215Z,101003.47
2019-03-11T16:11:33.917Z,100994.78
2019-03-11T16:14:05.690Z,101004.85
2019-03-11T16:16:37.380Z,101007.02
2019-03-11T16:19:09.175Z,101018.24
2019-03-11T16:21:40.806Z,101017.70
2019-03-11T16:24:12.562Z,101017.59
2019-03-11T16:26:44.390Z,101025.79
2019-03-11T16:29:16.361Z,101026.55
2019-03-11T16:31:48.115Z,101017.70
2019-03-11T16:34:19.956Z,101021.52
2019-03-11T16:36:51.687Z,101025.36
2019-03-11T16:39:23.383Z,101035.35
2019-03-11T16:41:56.310Z,101034.47
2019-03-11T16:44:27.979Z,101048.88
2019-03-11T16:46:59.770Z,101050.64
2019-03-11T16:49:31.504Z,101050.72
2019-03-11T16:52:03.190Z,101054.69
2019-03-11T16:54:35.438Z,101061.70
2019-03-11T16:57:07.111Z,101069.57
2019-03-11T16:59:38.735Z,101071.74
2019-03-11T17:02:10.849Z,101070.03
2019-03-11T17:04:42.557Z,101072.33
2019-03-11T17:07:14.444Z,101075.92
2019-03-11T17:09:46.740Z,101080.78
2019-03-11T17:12:18.468Z,101088.30
2019-03-11T17:14:50.182Z,101091.87
2019-03-11T17:17:21.899Z,101092.41
2019-03-11T17:19:53.535Z,101092.02
2019-03-11T17:22:25.546Z,101093.84
2019-03-11T17:24:57.149Z,101097.41
2019-03-11T17:27:28.871Z,101109.61
2019-03-11T17:30:00.553Z,101108.74
2019-03-11T17:32:32.295Z,101114.41
2019-03-11T17:35:03.980Z,101123.98
2019-03-11T17:37:35.867Z,101124.83
2019-03-11T17:40:09.140Z,101122.61
2019-03-11T17:42:40.890Z,101126.95
2019-03-11T17:45:13.044Z,101128.66
2019-03-11T17:47:44.762Z,101142.98
2019-03-11T17:50:17.171Z,101136.00
2019-03-11T17:52:49.096Z,101139.05
2019-03-11T17:55:21.302Z,101149.05
2019-03-11T17:57:53.128Z,101169.52
2019-03-11T18:00:26.848Z,101173.38
2019-03-11T18:02:58.546Z,101179.47
2019-03-11T18:05:30.334Z,101179.91
2019-03-11T18:08:02.617Z,101191.72
2019-03-11T18:10:34.554Z,101193.94
2019-03-11T18:13:06.378Z,101195.73
2019-03-11T18:15:38.134Z,101192.69
2019-03-11T18:18:10.002Z,101195.72
2019-03-11T18:20:41.752Z,101203.09
2019-03-11T18:23:13.744Z,101209.67
2019-03-11T18:25:45.523Z,101207.94
2019-03-11T18:28:17.293Z,101213.17
2019-03-11T18:30:51.599Z,101220.59
2019-03-11T18:33:22.795Z,101228.92
2019-03-11T18:35:54.572Z,101226.77
2019-03-11T18:38:26.271Z,101231.57
2019-03-11T18:40:58.223Z,101226.33
2019-03-11T18:43:29.940Z,101226.77
2019-03-11T18:46:01.667Z,101225.97
2019-03-11T18:48:33.363Z,101243.84
2019-03-11T18:51:10.816Z,101241.30
2019-03-11T18:53:38.644Z,101250.47
2019-03-11T18:56:10.626Z,101253.16
2019-03-11T18:58:42.473Z,101251.92
2019-03-11T19:01:14.242Z,101262.01
2019-03-11T19:03:46.292Z,101250.73
2019-03-11T19:06:18.042Z,101249.94
2019-03-11T19:08:49.946Z,101242.55
2019-03-11T19:11:21.784Z,101247.39
2019-03-11T19:13:53.604Z,101250.94
2019-03-11T19:16:25.467Z,101249.66
2019-03-11T19:18:57.233Z,101254.51
2019-03-11T19:21:28.933Z,101246.74
2019-03-11T19:24:00.756Z,101261.56
2019-03-11T19:26:32.607Z,101252.93
2019-03-11T19:29:04.325Z,101265.59
2019-03-11T19:31:36.114Z,101262.61
2019-03-11T19:34:07.902Z,101257.41
2019-03-11T19:36:39.631Z,101258.77
2019-03-11T19:39:14.067Z,101259.20
2019-03-11T19:41:46.135Z,101269.70
2019-03-11T19:44:17.938Z,101275.38
2019-03-11T19:46:49.666Z,101270.16
2019-03-11T19:49:21.519Z,101276.29
2019-03-11T19:51:53.349Z,101285.44
2019-03-11T19:54:25.227Z,101301.97
2019-03-11T19:56:57.245Z,101298.53
2019-03-11T19:59:29.183Z,101298.11
2019-03-11T20:02:00.949Z,101289.90
2019-03-11T20:04:32.982Z,101314.69
2019-03-11T20:07:04.823Z,101295.55
2019-03-11T20:09:36.974Z,101308.59
2019-03-11T20:12:08.853Z,101299.45
2019-03-11T20:14:41.010Z,101306.38
2019-03-11T20:17:12.748Z,101301.58
2019-03-11T20:19:44.693Z,101302.02
2019-03-11T20:22:16.651Z,101303.31
2019-03-11T20:24:48.500Z,101303.31
2019-03-11T20:27:20.248Z,101301.16
2019-03-11T20:29:52.104Z,101320.29
2019-03-11T20:32:23.962Z,101319.42
2019-03-11T20:34:55.759Z,101307.69
2019-03-11T20:37:27.523Z,101327.73
2019-03-11T20:39:59.384Z,101329.91
2019-03-11T20:42:34.007Z,101319.97
2019-03-11T20:45:04.906Z,101333.48
2019-03-11T20:47:37.645Z,101333.53
2019-03-11T20:50:11.136Z,101333.98
2019-03-11T20:52:42.879Z,101350.98
2019-03-11T20:55:15.033Z,101334.91
2019-03-11T20:57:46.837Z,101344.51
2019-03-11T21:00:20.703Z,101350.17
2019-03-11T21:02:52.463Z,101348.03
2019-03-11T21:05:27.168Z,101351.52
2019-03-11T21:07:58.994Z,101361.95
2019-03-11T21:10:30.901Z,101355.47
2019-03-11T21:13:02.580Z,101349.83
2019-03-11T21:15:34.722Z,101344.22
2019-03-11T21:18:06.724Z,101351.61
2019-03-11T21:20:38.546Z,101365.95
2019-03-11T21:23:10.232Z,101365.52
2019-03-11T21:25:42.027Z,101362.08
2019-03-11T21:28:13.852Z,101369.03
2019-03-11T21:30:45.937Z,101375.55
2019-03-11T21:33:17.762Z,101378.63
2019-03-11T21:35:49.779Z,101377.73
2019-03-11T21:38:21.554Z,101373.81
2019-03-11T21:40:53.245Z,101388.59
2019-03-11T21:43:25.055Z,101389.06
2019-03-11T21:45:56.735Z,101389.50
2019-03-11T21:48:28.566Z,101395.58
2019-03-11T21:51:00.215Z,101388.19
2019-03-11T21:53:31.891Z,101399.05
2019-03-11T21:56:03.617Z,101396.45
2019-03-11T21:58:35.267Z,101396.01
2019-03-11T22:01:06.975Z,101400.79
2019-03-11T22:03:38.841Z,101400.36
2019-03-11T22:06:10.577Z,101401.66
2019-03-11T22:08:42.416Z,101403.87
2019-03-11T22:11:14.165Z,101412.55
2019-03-11T22:13:45.814Z,101418.20
2019-03-11T22:16:17.484Z,101420.81
2019-03-11T22:18:49.473Z,101415.63
2019-03-11T22:21:21.155Z,101418.67
2019-03-11T22:23:52.853Z,101416.54
2019-03-11T22:26:24.488Z,101423.09
2019-03-11T22:28:56.154Z,101422.69
2019-03-11T22:31:28.111Z,101423.98
2019-03-11T22:33:59.848Z,101426.63
2019-03-11T22:36:31.483Z,101420.55
2019-03-11T22:39:03.162Z,101429.66
2019-03-11T22:41:34.815Z,101434.00
2019-03-11T22:44:06.604Z,101434.47
2019-03-11T22:46:38.444Z,101441.41
2019-03-11T22:49:10.789Z,101433.63
2019-03-11T22:51:42.405Z,101443.61
2019-03-11T22:54:14.260Z,101446.21
2019-03-11T22:56:47.703Z,101447.55
2019-03-11T22:59:19.471Z,101441.89
2019-03-11T23:01:51.047Z,101451.88
2019-03-11T23:04:22.888Z,101451.91
2019-03-11T23:06:54.515Z,101455.38
2019-03-11T23:09:27.182Z,101459.28
2019-03-11T23:11:58.825Z,101461.45
2019-03-11T23:14:30.532Z,101464.92
2019-03-11T23:17:02.186Z,101467.09
2019-03-11T23:19:34.105Z,101472.77
2019-03-11T23:22:06.113Z,101461.91
2019-03-11T23:24:37.709Z,101461.50
2019-03-11T23:27:09.341Z,101466.71
2019-03-11T23:29:41.668Z,101468.45
2019-03-11T23:32:14.086Z,101464.96
2019-03-11T23:34:45.669Z,101465.39
2019-03-11T23:37:17.399Z,101474.06
2019-03-11T23:39:48.997Z,101472.76
2019-03-11T23:42:20.667Z,101481.88
2019-03-11T23:44:52.244Z,101487.52
2019-03-11T23:47:23.887Z,101478.41
2019-03-11T23:49:55.490Z,101479.71
2019-03-11T23:52:27.304Z,101479.28
2019-03-11T23:54:58.880Z,101481.44
2019-03-11T23:57:30.500Z,101481.47
